Time;durP1;ratioP1;P1;durP2;ratioP2;P2;SDS_P1;SDS_P2;PMS_P1;PMS_P2;Temp;Humidity;BMP_temperature;BMP_pressure;BME280_temperature;BME280_humidity;BME280_pressure;Samples;Min_cycle;Max_cycle;Signal;HPM_P1;HPM_P2
2023/09/19 00:02:17;;;;;;;3.35;1.00;;;15.20;99.90;;;;;;5073362;28;20017;-43
2023/09/19 00:04:43;;;;;;;9.38;1.27;;;15.20;99.90;;;;;;5073277;28;20017;-47
2023/09/19 00:07:11;;;;;;;4.10;1.60;;;15.20;99.90;;;;;;5073241;28;20027;-41
2023/09/19 00:09:37;;;;;;;4.00;0.98;;;15.20;99.90;;;;;;5073232;28;20032;-46
2023/09/19 00:12:06;;;;;;;5.65;0.95;;;15.20;99.90;;;;;;5073210;28;20028;-45
2023/09/19 00:14:35;;;;;;;8.30;2.00;;;15.20;99.90;;;;;;5073112;28;20432;-46
2023/09/19 00:17:05;;;;;;;5.63;1.00;;;15.20;99.90;;;;;;5073508;28;20107;-47
2023/09/19 00:19:32;;;;;;;6.55;1.55;;;15.20;99.90;;;;;;5073309;28;20024;-43
2023/09/19 00:21:58;;;;;;;4.50;0.95;;;15.30;99.90;;;;;;5073098;28;20048;-46
2023/09/19 00:24:24;;;;;;;3.42;1.08;;;15.30;99.90;;;;;;5072982;28;20059;-49
2023/09/19 00:26:49;;;;;;;6.55;0.80;;;15.30;99.90;;;;;;5071488;28;20020;-49
2023/09/19 00:29:16;;;;;;;7.07;1.58;;;15.30;99.90;;;;;;5072605;28;20064;-49
2023/09/19 00:31:45;;;;;;;3.80;1.13;;;15.30;99.90;;;;;;5073202;28;20040;-48
2023/09/19 00:34:10;;;;;;;5.85;1.20;;;15.30;99.90;;;;;;5072966;28;20021;-44
2023/09/19 00:36:39;;;;;;;4.50;1.58;;;15.30;99.90;;;;;;5072883;28;20070;-49
2023/09/19 00:39:05;;;;;;;10.32;1.25;;;15.40;99.90;;;;;;5073067;28;20025;-45
2023/09/19 00:41:35;;;;;;;1.67;0.90;;;15.40;99.90;;;;;;5072886;28;20025;-45
2023/09/19 00:44:03;;;;;;;3.75;0.90;;;15.40;99.90;;;;;;5072803;28;20501;-47
2023/09/19 00:46:30;;;;;;;5.50;0.95;;;15.50;99.90;;;;;;5073038;28;20036;-48
2023/09/19 00:48:56;;;;;;;4.33;1.27;;;15.40;99.90;;;;;;5073093;28;20511;-49
2023/09/19 00:51:25;;;;;;;5.63;0.82;;;15.40;99.90;;;;;;5072805;28;20063;-48
2023/09/19 00:53:52;;;;;;;2.42;0.80;;;15.40;99.90;;;;;;5071515;28;20063;-44
2023/09/19 00:56:18;;;;;;;1.52;1.05;;;15.50;99.90;;;;;;5072910;28;20489;-45
2023/09/19 00:58:46;;;;;;;9.52;1.88;;;15.50;99.90;;;;;;5072609;28;20025;-47
2023/09/19 01:01:14;;;;;;;6.07;1.23;;;15.50;99.90;;;;;;5073001;28;20024;-48
2023/09/19 01:03:41;;;;;;;5.70;1.00;;;15.40;99.90;;;;;;5072462;28;20013;-45
2023/09/19 01:06:11;;;;;;;4.23;1.17;;;15.40;99.90;;;;;;5071750;28;20021;-43
2023/09/19 01:08:37;;;;;;;11.80;1.20;;;15.40;99.90;;;;;;5072563;28;20469;-50
2023/09/19 01:11:14;;;;;;;8.07;1.02;;;15.40;99.90;;;;;;5072809;28;20078;-46
2023/09/19 01:14:07;;;;;;;1.73;0.57;;;15.40;99.90;;;;;;5072615;28;20466;-46
2023/09/19 01:16:43;;;;;;;4.80;0.90;;;15.50;99.90;;;;;;5072428;28;20033;-45
2023/09/19 01:19:30;;;;;;;1.27;0.80;;;15.50;99.90;;;;;;5072694;28;20047;-44
2023/09/19 01:22:00;;;;;;;2.92;1.23;;;15.50;99.90;;;;;;5072402;28;20017;-49
2023/09/19 01:24:39;;;;;;;1.52;1.05;;;15.50;99.90;;;;;;5072680;28;20074;-48
2023/09/19 01:27:14;;;;;;;4.13;1.10;;;15.40;99.90;;;;;;5072425;28;20036;-49
2023/09/19 01:29:44;;;;;;;5.28;1.10;;;15.40;99.90;;;;;;5071129;28;20031;-49
2023/09/19 01:32:14;;;;;;;6.68;1.38;;;15.40;99.90;;;;;;5072351;28;20029;-47
2023/09/19 01:34:59;;;;;;;3.65;0.60;;;15.40;99.90;;;;;;5072641;28;20029;-47
2023/09/19 01:37:25;;;;;;;3.20;1.15;;;15.40;99.90;;;;;;5072364;28;20025;-48
2023/09/19 01:40:08;;;;;;;2.55;1.05;;;15.40;99.90;;;;;;5074847;28;20381;-47
2023/09/19 01:42:57;;;;;;;5.55;0.95;;;15.40;99.90;;;;;;5076061;28;20115;-48
2023/09/19 01:45:40;;;;;;;7.03;0.98;;;15.40;99.90;;;;;;5076290;28;20017;-46
2023/09/19 01:48:15;;;;;;;10.93;1.77;;;15.30;99.90;;;;;;5075717;28;20509;-45
2023/09/19 01:50:58;;;;;;;3.38;1.15;;;15.30;99.90;;;;;;5076172;28;20043;-49
2023/09/19 01:53:28;;;;;;;5.95;1.30;;;15.30;99.90;;;;;;5076166;28;20074;-49
2023/09/19 01:55:55;;;;;;;5.22;0.80;;;15.40;99.90;;;;;;5076033;28;20024;-49
2023/09/19 01:58:30;;;;;;;4.38;1.00;;;15.40;99.90;;;;;;5075770;28;20098;-45
2023/09/19 02:00:58;;;;;;;9.80;1.70;;;15.40;99.90;;;;;;5075623;28;20485;-50
2023/09/19 02:03:25;;;;;;;1.10;0.88;;;15.30;99.90;;;;;;5075915;28;20024;-50
2023/09/19 02:05:53;;;;;;;3.90;1.05;;;15.30;99.90;;;;;;5075633;28;20027;-43
2023/09/19 02:08:21;;;;;;;2.80;0.93;;;15.30;99.90;;;;;;5075582;28;20021;-47
2023/09/19 02:10:49;;;;;;;8.02;1.65;;;15.30;99.90;;;;;;5075523;28;20025;-48
2023/09/19 02:13:19;;;;;;;8.32;1.45;;;15.30;99.90;;;;;;5075506;28;20107;-46
2023/09/19 02:15:46;;;;;;;4.45;1.10;;;15.30;99.90;;;;;;5075331;28;20031;-45
2023/09/19 02:18:12;;;;;;;6.38;1.75;;;15.30;99.90;;;;;;5075313;28;20070;-46
2023/09/19 02:20:39;;;;;;;4.22;0.90;;;15.30;99.90;;;;;;5075623;28;20385;-46
2023/09/19 02:23:05;;;;;;;7.82;1.65;;;15.30;99.90;;;;;;5075347;28;20534;-50
2023/09/19 02:25:31;;;;;;;2.72;1.13;;;15.30;99.90;;;;;;5075259;28;20024;-47
2023/09/19 02:27:58;;;;;;;6.03;1.23;;;15.30;99.90;;;;;;5075217;28;20099;-47
2023/09/19 02:30:25;;;;;;;4.32;2.10;;;15.30;99.90;;;;;;5074166;28;20032;-45
2023/09/19 02:32:51;;;;;;;4.25;1.15;;;15.20;99.90;;;;;;5075447;28;20028;-50
2023/09/19 02:35:19;;;;;;;4.63;1.05;;;15.20;99.90;;;;;;5075109;28;20031;-45
2023/09/19 02:37:45;;;;;;;;;;;15.20;99.90;;;;;;5075428;28;20037;-48
2023/09/19 02:40:18;;;;;;;7.28;1.50;;;15.20;99.90;;;;;;5074962;28;19932;-44
2023/09/19 02:42:49;;;;;;;8.15;1.27;;;15.20;99.90;;;;;;5074963;28;20024;-50
2023/09/19 02:45:17;;;;;;;9.15;1.20;;;15.10;99.90;;;;;;5074986;28;20091;-46
2023/09/19 02:47:44;;;;;;;4.97;2.20;;;15.10;99.90;;;;;;5074659;28;20128;-47
2023/09/19 02:50:11;;;;;;;6.90;1.65;;;15.10;99.90;;;;;;5074453;28;20122;-44
2023/09/19 02:52:37;;;;;;;3.60;0.95;;;15.20;99.90;;;;;;5075028;28;20028;-47
2023/09/19 02:55:05;;;;;;;3.28;1.08;;;15.10;99.90;;;;;;5074706;28;20031;-45
2023/09/19 02:57:33;;;;;;;6.97;1.60;;;15.10;99.90;;;;;;5074669;28;20024;-47
2023/09/19 03:00:00;;;;;;;9.10;1.95;;;15.10;99.90;;;;;;5074499;28;20031;-50
2023/09/19 03:02:27;;;;;;;4.57;1.55;;;15.10;99.90;;;;;;5073278;28;20074;-46
2023/09/19 03:04:53;;;;;;;9.27;1.50;;;15.10;99.90;;;;;;5074445;28;20021;-48
2023/09/19 03:07:19;;;;;;;6.25;1.60;;;15.10;99.90;;;;;;5073315;28;20025;-50
2023/09/19 03:09:45;;;;;;;6.88;1.63;;;15.10;99.90;;;;;;5074414;28;20047;-50
2023/09/19 03:12:11;;;;;;;10.13;1.58;;;15.10;99.90;;;;;;5074270;28;20048;-46
2023/09/19 03:14:36;;;;;;;10.10;1.40;;;15.10;99.90;;;;;;5074519;28;20013;-45
2023/09/19 03:17:05;;;;;;;14.18;2.75;;;15.10;99.90;;;;;;5074214;28;20074;-48
2023/09/19 03:19:33;;;;;;;12.70;1.52;;;15.10;99.90;;;;;;5073043;28;20034;-50
2023/09/19 03:21:59;;;;;;;5.20;1.20;;;15.10;99.90;;;;;;5074085;28;20013;-47
2023/09/19 03:24:25;;;;;;;9.95;1.73;;;15.00;99.90;;;;;;5072744;28;20024;-47
2023/09/19 03:26:52;;;;;;;16.02;1.95;;;15.00;99.90;;;;;;5073986;28;20024;-47
2023/09/19 03:29:18;;;;;;;5.03;2.28;;;15.00;99.90;;;;;;5074007;28;20028;-48
2023/09/19 03:31:43;;;;;;;9.15;1.15;;;14.90;99.90;;;;;;5073935;28;20397;-49
2023/09/19 03:34:09;;;;;;;8.20;1.55;;;15.00;99.90;;;;;;5073892;28;20016;-46
2023/09/19 03:36:35;;;;;;;5.03;1.67;;;14.90;99.90;;;;;;5074127;28;20485;-46
2023/09/19 03:39:04;;;;;;;6.32;1.88;;;14.90;99.90;;;;;;5073747;28;20100;-44
2023/09/19 03:41:31;;;;;;;7.68;1.27;;;14.90;99.90;;;;;;5073974;28;20025;-46
2023/09/19 03:43:56;;;;;;;7.88;1.73;;;14.90;99.90;;;;;;5074009;28;20017;-47
2023/09/19 03:46:22;;;;;;;5.03;1.33;;;14.90;99.90;;;;;;5073675;28;20082;-44
2023/09/19 03:48:48;;;;;;;6.15;1.92;;;14.90;99.90;;;;;;5073426;28;20040;-44
2023/09/19 03:51:13;;;;;;;8.25;1.60;;;14.80;99.90;;;;;;5073627;28;20470;-49
2023/09/19 03:53:39;;;;;;;9.60;2.38;;;14.90;99.90;;;;;;5073822;28;20021;-48
2023/09/19 03:56:05;;;;;;;9.88;1.30;;;14.90;99.90;;;;;;5073449;28;20028;-48
2023/09/19 03:58:30;;;;;;;4.53;1.45;;;14.90;99.90;;;;;;5073713;28;20028;-46
2023/09/19 04:00:57;;;;;;;10.45;1.67;;;14.90;99.90;;;;;;5073648;28;20034;-33
2023/09/19 04:03:24;;;;;;;2.00;0.90;;;14.80;99.90;;;;;;5072546;28;20012;-34
2023/09/19 04:05:50;;;;;;;3.83;1.30;;;14.80;99.90;;;;;;5073293;28;20048;-33
2023/09/19 04:08:16;;;;;;;6.22;1.10;;;14.80;99.90;;;;;;5073577;28;20143;-33
2023/09/19 04:10:43;;;;;;;7.22;1.30;;;14.80;99.90;;;;;;5071992;28;20059;-34
2023/09/19 04:13:09;;;;;;;4.63;1.73;;;14.80;99.90;;;;;;5073202;28;20016;-33
2023/09/19 04:15:34;;;;;;;11.60;1.85;;;14.80;99.90;;;;;;5073075;28;20055;-35
2023/09/19 04:18:00;;;;;;;8.77;1.73;;;14.80;99.90;;;;;;5073119;28;20029;-33
2023/09/19 04:20:26;;;;;;;4.88;1.38;;;14.80;99.90;;;;;;5073034;28;20094;-33
2023/09/19 04:22:52;;;;;;;7.75;1.25;;;14.80;99.90;;;;;;5073091;28;20074;-34
2023/09/19 04:25:18;;;;;;;6.50;1.98;;;14.80;99.90;;;;;;5072954;28;20020;-32
2023/09/19 04:27:44;;;;;;;24.55;2.00;;;14.80;99.90;;;;;;5073254;28;20024;-32
2023/09/19 04:30:11;;;;;;;10.43;2.60;;;14.70;99.90;;;;;;5073636;28;20479;-34
2023/09/19 04:32:40;;;;;;;7.20;1.55;;;14.80;99.90;;;;;;5073307;28;20431;-33
2023/09/19 04:35:10;;;;;;;7.13;2.00;;;14.70;99.90;;;;;;5073153;28;20032;-32
2023/09/19 04:37:41;;;;;;;7.28;1.48;;;14.70;99.90;;;;;;5073257;28;20430;-33
2023/09/19 04:40:14;;;;;;;8.43;1.55;;;14.70;99.90;;;;;;5073016;28;20028;-32
2023/09/19 04:42:41;;;;;;;12.15;2.08;;;14.70;99.90;;;;;;5073157;28;20055;-33
2023/09/19 04:45:09;;;;;;;4.25;1.45;;;14.70;99.90;;;;;;5072890;28;20016;-32
2023/09/19 04:47:35;;;;;;;4.28;1.20;;;14.70;99.90;;;;;;5072572;28;20040;-34
2023/09/19 04:50:01;;;;;;;6.30;1.63;;;14.70;99.90;;;;;;5072788;28;20025;-33
2023/09/19 04:52:27;;;;;;;6.18;1.52;;;14.70;99.90;;;;;;5072708;28;20031;-33
2023/09/19 04:54:53;;;;;;;3.88;1.60;;;14.70;99.90;;;;;;5072999;28;20260;-34
2023/09/19 04:57:18;;;;;;;5.80;0.90;;;14.70;99.90;;;;;;5072636;28;20104;-32
2023/09/19 04:59:44;;;;;;;9.88;1.52;;;14.60;99.90;;;;;;5072588;28;20115;-32
2023/09/19 05:02:10;;;;;;;10.55;1.80;;;14.60;99.90;;;;;;5072650;28;20028;-35
2023/09/19 05:04:35;;;;;;;17.90;2.83;;;14.60;99.90;;;;;;5072671;28;20035;-32
2023/09/19 05:07:03;;;;;;;5.85;1.67;;;14.60;99.90;;;;;;5072609;28;20025;-34
2023/09/19 05:09:29;;;;;;;4.63;1.30;;;14.70;99.90;;;;;;5071320;28;20024;-33
2023/09/19 05:11:56;;;;;;;7.45;1.50;;;14.70;99.90;;;;;;5071240;28;20036;-34
2023/09/19 05:14:22;;;;;;;8.85;1.65;;;14.70;99.90;;;;;;5074359;28;20020;-33
2023/09/19 05:16:48;;;;;;;4.93;1.20;;;14.60;99.90;;;;;;5076834;28;20078;-33
2023/09/19 05:19:14;;;;;;;7.53;1.40;;;14.60;99.90;;;;;;5076427;28;20029;-33
2023/09/19 05:21:39;;;;;;;5.15;0.85;;;14.70;99.90;;;;;;5076495;28;20481;-33
2023/09/19 05:24:08;;;;;;;15.32;1.38;;;14.60;99.90;;;;;;5076413;28;20538;-34
2023/09/19 05:26:34;;;;;;;7.55;1.52;;;14.70;99.90;;;;;;5076391;28;20056;-34
2023/09/19 05:29:01;;;;;;;6.55;1.52;;;14.70;99.90;;;;;;5076301;28;20477;-33
2023/09/19 05:31:27;;;;;;;5.57;1.60;;;14.70;99.90;;;;;;5076587;28;20024;-34
2023/09/19 05:33:55;;;;;;;5.20;1.27;;;14.70;99.90;;;;;;5076275;28;20023;-33
2023/09/19 05:36:20;;;;;;;3.72;1.42;;;14.70;99.90;;;;;;5076173;28;20024;-33
2023/09/19 05:38:49;;;;;;;7.90;1.70;;;14.70;99.90;;;;;;5076082;28;20047;-34
2023/09/19 05:41:17;;;;;;;15.02;1.35;;;14.70;99.90;;;;;;5076345;28;20443;-34
2023/09/19 05:43:43;;;;;;;5.50;1.30;;;14.80;99.90;;;;;;5075993;28;20021;-35
2023/09/19 05:46:09;;;;;;;12.95;1.35;;;14.80;99.90;;;;;;5075933;28;20024;-34
2023/09/19 05:48:34;;;;;;;5.47;2.10;;;14.80;99.90;;;;;;5075809;28;20036;-33
2023/09/19 05:51:01;;;;;;;8.35;1.42;;;14.80;99.90;;;;;;5075873;28;20032;-35
2023/09/19 05:53:26;;;;;;;7.72;1.60;;;14.90;99.90;;;;;;5075788;28;20027;-35
2023/09/19 05:55:53;;;;;;;6.18;2.15;;;14.90;99.90;;;;;;5075801;28;20032;-34
2023/09/19 05:58:19;;;;;;;11.50;2.03;;;14.80;99.90;;;;;;5075709;28;20077;-33
2023/09/19 06:00:47;;;;;;;9.05;1.52;;;14.90;99.90;;;;;;5075565;28;20120;-35
2023/09/19 06:03:14;;;;;;;4.45;0.95;;;14.80;99.90;;;;;;5075912;28;20100;-33
2023/09/19 06:05:43;;;;;;;13.00;1.90;;;14.90;99.90;;;;;;5075693;28;20103;-34
2023/09/19 06:08:09;;;;;;;6.72;1.40;;;14.90;99.90;;;;;;5075866;28;20473;-34
2023/09/19 06:10:35;;;;;;;10.25;1.88;;;15.00;99.90;;;;;;5075801;28;20074;-34
2023/09/19 06:13:05;;;;;;;7.82;1.65;;;15.00;99.90;;;;;;5074115;28;20439;-35
2023/09/19 06:15:33;;;;;;;6.22;1.20;;;15.10;99.90;;;;;;5075330;28;20504;-34
2023/09/19 06:17:59;;;;;;;9.23;1.95;;;15.10;99.90;;;;;;5075715;28;20032;-33
2023/09/19 06:20:26;;;;;;;7.90;1.63;;;15.10;99.90;;;;;;5075560;28;20056;-35
2023/09/19 06:22:52;;;;;;;11.93;1.45;;;15.10;99.90;;;;;;5074018;28;20023;-36
2023/09/19 06:25:21;;;;;;;9.98;1.50;;;15.10;99.90;;;;;;5074029;28;20029;-35
2023/09/19 06:27:54;;;;;;;5.07;0.95;;;15.10;99.90;;;;;;5075254;28;20016;-34
2023/09/19 06:30:21;;;;;;;5.93;1.35;;;15.20;99.90;;;;;;5075265;28;20033;-35
2023/09/19 06:32:48;;;;;;;15.93;2.37;;;15.20;99.90;;;;;;5075103;28;20025;-34
2023/09/19 06:35:15;;;;;;;9.65;2.78;;;15.30;99.90;;;;;;5075070;28;20313;-34
2023/09/19 06:37:42;;;;;;;13.15;2.38;;;15.20;99.90;;;;;;5075118;28;20489;-34
2023/09/19 06:40:13;;;;;;;5.85;1.80;;;15.20;99.90;;;;;;5075014;28;20021;-36
2023/09/19 06:42:41;;;;;;;12.32;2.97;;;15.30;99.90;;;;;;5074993;28;20028;-34
2023/09/19 06:45:07;;;;;;;7.45;1.40;;;15.30;99.90;;;;;;5074968;28;20023;-34
2023/09/19 06:47:33;;;;;;;5.25;1.40;;;15.30;99.90;;;;;;5074811;28;20033;-34
2023/09/19 06:49:58;;;;;;;11.27;1.55;;;15.40;99.90;;;;;;5074865;28;20021;-35
2023/09/19 06:52:27;;;;;;;10.55;1.95;;;15.40;99.90;;;;;;5074794;28;20592;-34
2023/09/19 06:54:53;;;;;;;8.70;2.10;;;15.40;99.90;;;;;;5074777;28;20107;-35
2023/09/19 06:57:19;;;;;;;10.43;1.70;;;15.50;99.90;;;;;;5073346;28;20056;-35
2023/09/19 06:59:46;;;;;;;11.65;2.63;;;15.40;99.90;;;;;;5074542;28;20060;-35
2023/09/19 07:02:11;;;;;;;8.18;2.08;;;15.50;99.90;;;;;;5074605;28;20024;-33
2023/09/19 07:04:37;;;;;;;23.40;2.60;;;15.50;99.90;;;;;;5074582;28;20059;-35
2023/09/19 07:07:03;;;;;;;6.97;1.83;;;15.50;99.90;;;;;;5074502;28;20043;-35
2023/09/19 07:09:29;;;;;;;5.15;1.42;;;15.60;99.90;;;;;;5074687;28;20055;-34
2023/09/19 07:11:55;;;;;;;12.88;2.15;;;15.70;99.90;;;;;;5074639;28;20500;-34
2023/09/19 07:14:20;;;;;;;7.47;2.50;;;15.80;99.90;;;;;;5073079;28;20024;-35
2023/09/19 07:16:50;;;;;;;6.57;1.85;;;15.80;99.90;;;;;;5074604;28;20108;-35
2023/09/19 07:19:16;;;;;;;10.25;2.05;;;15.90;99.90;;;;;;5074106;28;20029;-34
2023/09/19 07:21:42;;;;;;;8.77;1.75;;;15.90;99.90;;;;;;5074172;28;20051;-34
2023/09/19 07:24:08;;;;;;;13.65;1.40;;;16.00;99.90;;;;;;5074120;28;20424;-35
2023/09/19 07:26:34;;;;;;;14.63;2.17;;;16.00;99.90;;;;;;5074379;28;20056;-34
2023/09/19 07:29:02;;;;;;;7.57;1.63;;;16.00;99.90;;;;;;5074407;28;20465;-34
2023/09/19 07:31:28;;;;;;;5.72;1.00;;;16.00;99.90;;;;;;5073912;28;20322;-35
2023/09/19 07:33:54;;;;;;;10.30;1.40;;;16.10;99.90;;;;;;5074001;28;20013;-35
2023/09/19 07:36:20;;;;;;;13.45;2.10;;;16.10;99.90;;;;;;5073699;28;20031;-34
2023/09/19 07:38:45;;;;;;;11.45;1.83;;;16.10;99.90;;;;;;5073867;28;20024;-35
2023/09/19 07:41:12;;;;;;;7.75;1.63;;;16.20;99.90;;;;;;5074054;28;20456;-34
2023/09/19 07:43:41;;;;;;;9.95;1.90;;;16.30;99.90;;;;;;5073757;28;20024;-34
2023/09/19 07:46:11;;;;;;;6.80;1.33;;;16.20;99.90;;;;;;5073714;28;20021;-33
2023/09/19 07:48:38;;;;;;;8.32;1.60;;;16.30;99.90;;;;;;5073532;28;20037;-33
2023/09/19 07:51:06;;;;;;;9.30;1.42;;;16.30;99.90;;;;;;5073642;28;20366;-34
2023/09/19 07:53:34;;;;;;;2.78;1.23;;;16.40;99.90;;;;;;5073511;28;20032;-33
2023/09/19 07:56:07;;;;;;;12.93;2.00;;;16.40;99.90;;;;;;5073826;28;20044;-34
2023/09/19 07:58:34;;;;;;;13.18;2.35;;;16.50;99.90;;;;;;5073725;28;20092;-32
2023/09/19 08:01:17;;;;;;;11.15;1.85;;;16.50;99.90;;;;;;5073334;28;20043;-33
2023/09/19 08:03:44;;;;;;;7.78;1.98;;;16.50;99.90;;;;;;5073477;28;20033;-33
2023/09/19 08:06:10;;;;;;;12.67;1.80;;;16.50;99.90;;;;;;5072076;28;20119;-34
2023/09/19 08:08:37;;;;;;;15.93;1.90;;;16.50;99.90;;;;;;5073241;28;20087;-35
2023/09/19 08:11:15;;;;;;;13.65;2.20;;;16.60;99.90;;;;;;5073558;28;20474;-35
2023/09/19 08:13:43;;;;;;;8.32;1.73;;;16.60;99.90;;;;;;5071979;28;20028;-36
2023/09/19 08:16:10;;;;;;;9.73;2.00;;;16.70;99.90;;;;;;5073312;28;20093;-36
2023/09/19 08:18:39;;;;;;;12.60;2.03;;;16.80;99.90;;;;;;5071753;28;20560;-34
2023/09/19 08:21:10;;;;;;;6.88;1.50;;;16.90;99.90;;;;;;5072028;28;20520;-35
2023/09/19 08:23:36;;;;;;;14.05;2.08;;;16.90;99.90;;;;;;5073048;28;20025;-33
2023/09/19 08:26:07;;;;;;;36.35;2.53;;;17.00;99.90;;;;;;5072955;28;20036;-32
2023/09/19 08:28:33;;;;;;;8.50;1.90;;;17.10;99.90;;;;;;5073284;28;20025;-34
2023/09/19 08:31:06;;;;;;;11.68;2.35;;;17.20;99.90;;;;;;5073010;28;20563;-35
2023/09/19 08:33:35;;;;;;;9.40;3.15;;;17.20;99.90;;;;;;5072946;28;20091;-36
2023/09/19 08:36:04;;;;;;;11.80;2.20;;;17.20;99.90;;;;;;5072905;28;20031;-35
2023/09/19 08:38:33;;;;;;;11.30;1.90;;;17.30;99.90;;;;;;5072836;28;20507;-35
2023/09/19 08:41:07;;;;;;;12.63;2.13;;;17.30;99.90;;;;;;5072672;28;20044;-35
2023/09/19 08:43:34;;;;;;;11.43;2.17;;;17.30;99.90;;;;;;5072660;28;20031;-36
2023/09/19 08:46:14;;;;;;;11.93;1.77;;;17.30;99.90;;;;;;5072830;28;20370;-51
2023/09/19 08:48:52;;;;;;;11.43;1.73;;;17.30;99.90;;;;;;5072030;28;20046;-52
2023/09/19 08:51:44;;;;;;;8.30;2.08;;;17.40;99.90;;;;;;5071532;28;20078;-48
2023/09/19 08:54:22;;;;;;;9.07;1.98;;;17.50;99.90;;;;;;5073044;28;20513;-50
2023/09/19 08:56:48;;;;;;;10.38;1.92;;;17.50;99.90;;;;;;5072679;28;20025;-50
2023/09/19 08:59:15;;;;;;;5.15;1.42;;;17.70;99.90;;;;;;5072545;28;20037;-50
2023/09/19 09:01:42;;;;;;;13.80;2.00;;;17.70;99.90;;;;;;5072673;28;20081;-46
2023/09/19 09:04:12;;;;;;;6.57;1.60;;;17.80;99.90;;;;;;5072589;28;20016;-49
2023/09/19 09:06:39;;;;;;;11.50;2.00;;;17.80;99.90;;;;;;5072885;28;20375;-49
2023/09/19 09:09:05;;;;;;;3.85;1.63;;;17.80;99.90;;;;;;5072540;28;20107;-51
2023/09/19 09:11:33;;;;;;;7.03;2.28;;;17.90;99.90;;;;;;5072563;28;20075;-49
2023/09/19 09:13:59;;;;;;;10.65;1.98;;;18.10;99.90;;;;;;5072527;28;20184;-50
2023/09/19 09:16:25;;;;;;;10.60;1.77;;;18.10;99.90;;;;;;5072475;28;20553;-52
2023/09/19 09:18:52;;;;;;;14.05;2.13;;;18.10;99.90;;;;;;5072465;28;20028;-52
2023/09/19 09:21:18;;;;;;;4.95;1.02;;;18.20;99.90;;;;;;5072555;28;20017;-50
2023/09/19 09:23:44;;;;;;;12.43;1.60;;;18.20;99.90;;;;;;5071346;28;20481;-48
2023/09/19 09:26:10;;;;;;;9.30;2.25;;;18.20;99.90;;;;;;5071275;28;20024;-49
2023/09/19 09:28:44;;;;;;;12.40;2.10;;;18.10;99.90;;;;;;5072691;28;20021;-52
2023/09/19 09:31:23;;;;;;;5.65;1.27;;;18.10;99.90;;;;;;5072339;28;20127;-49
2023/09/19 09:33:55;;;;;;;8.20;2.08;;;18.10;99.90;;;;;;5072412;28;20394;-49
2023/09/19 09:36:38;;;;;;;3.30;1.30;;;18.20;99.90;;;;;;5072364;28;20029;-51
2023/09/19 09:39:15;;;;;;;13.90;2.58;;;18.30;99.90;;;;;;5072319;28;20396;-50
2023/09/19 09:41:43;;;;;;;7.25;1.58;;;18.30;99.90;;;;;;5072555;28;20473;-48
2023/09/19 09:44:17;;;;;;;8.48;1.25;;;18.50;99.90;;;;;;5072271;28;20021;-47
2023/09/19 09:49:33;;;;;;;9.45;2.05;;;18.70;99.90;;;;;;5072573;28;20048;-53
2023/09/19 09:52:07;;;;;;;9.50;1.55;;;18.70;99.90;;;;;;5072208;28;20028;-51
2023/09/19 09:54:37;;;;;;;6.25;2.05;;;18.60;99.90;;;;;;5072189;28;20070;-52
2023/09/19 09:57:13;;;;;;;10.77;2.40;;;18.50;99.90;;;;;;5072160;28;20044;-50
2023/09/19 09:59:47;;;;;;;8.43;1.48;;;18.40;99.90;;;;;;5073000;28;20115;-50
2023/09/19 10:02:40;;;;;;;9.52;1.75;;;18.40;99.90;;;;;;5075784;28;20025;-51
2023/09/19 10:05:28;;;;;;;5.95;1.67;;;18.40;99.90;;;;;;5074778;28;20051;-51
2023/09/19 10:08:08;;;;;;;7.30;1.98;;;18.40;99.90;;;;;;5075682;28;20086;-52
2023/09/19 10:13:07;;;;;;;5.90;1.80;;;18.50;99.90;;;;;;5075689;28;20029;-48
2023/09/19 10:15:35;;;;;;;9.07;2.15;;;18.70;99.90;;;;;;5075337;28;20025;-46
2023/09/19 10:18:04;;;;;;;9.45;1.77;;;18.70;99.90;;;;;;5074235;28;20591;-51
2023/09/19 10:20:35;;;;;;;3.53;1.17;;;18.70;99.90;;;;;;5075511;28;20047;-51
2023/09/19 10:23:03;;;;;;;7.88;1.75;;;18.70;99.90;;;;;;5075527;28;20397;-51
2023/09/19 10:25:30;;;;;;;15.73;2.88;;;18.70;99.90;;;;;;5073994;28;20170;-51
2023/09/19 10:28:00;;;;;;;7.95;1.23;;;18.90;99.90;;;;;;5075380;28;20078;-50
2023/09/19 10:30:28;;;;;;;5.38;1.67;;;18.90;99.90;;;;;;5075251;28;20036;-51
2023/09/19 10:32:59;;;;;;;;;;;19.10;99.90;;;;;;5075693;28;20040;-50
2023/09/19 10:35:26;;;;;;;8.98;2.38;;;19.20;99.90;;;;;;5075548;28;19965;-50
2023/09/19 10:37:54;;;;;;;6.45;1.27;;;19.30;99.90;;;;;;5073978;28;20036;-48
2023/09/19 10:40:26;;;;;;;8.93;1.30;;;19.50;99.90;;;;;;5075326;28;20028;-51
2023/09/19 10:42:53;;;;;;;6.63;1.50;;;19.50;99.90;;;;;;5075372;28;20377;-51
2023/09/19 10:45:20;;;;;;;7.95;1.33;;;19.50;99.90;;;;;;5074992;28;20419;-51
2023/09/19 10:47:47;;;;;;;9.93;1.77;;;19.50;99.90;;;;;;5074901;28;20462;-51
2023/09/19 10:50:21;;;;;;;8.73;1.65;;;19.50;99.90;;;;;;5074990;28;20392;-47
2023/09/19 10:52:50;;;;;;;5.28;1.23;;;19.50;99.90;;;;;;5074902;28;20056;-35
2023/09/19 10:55:19;;;;;;;6.80;1.70;;;19.50;99.90;;;;;;5075508;28;20031;-51
2023/09/19 10:57:46;;;;;;;5.97;1.65;;;19.60;99.90;;;;;;5074734;28;20104;-50
2023/09/19 11:00:28;;;;;;;12.27;1.50;;;19.70;99.90;;;;;;5074712;28;20090;-50
2023/09/19 11:03:18;;;;;;;6.22;1.33;;;19.60;99.90;;;;;;5074636;28;20314;-50
2023/09/19 11:06:04;;;;;;;13.80;2.20;;;19.40;99.90;;;;;;5074613;28;20043;-49
2023/09/19 11:08:50;;;;;;;5.22;1.90;;;19.40;99.90;;;;;;5074581;28;20051;-52
2023/09/19 11:11:39;;;;;;;7.13;1.42;;;19.40;99.90;;;;;;5074288;28;20090;-50
2023/09/19 11:14:23;;;;;;;3.35;0.85;;;19.40;99.90;;;;;;5070718;28;20087;-53
2023/09/19 11:17:21;;;;;;;10.18;1.52;;;19.30;99.90;;;;;;5074637;28;20037;-54
2023/09/19 11:20:15;;;;;;;4.93;1.25;;;19.30;99.90;;;;;;5069708;28;20043;-50
2023/09/19 11:22:58;;;;;;;5.38;0.90;;;19.20;99.90;;;;;;5074204;28;20044;-52
2023/09/19 11:25:30;;;;;;;11.93;1.70;;;19.20;99.90;;;;;;5074133;28;20089;-50
2023/09/19 11:28:08;;;;;;;2.55;0.82;;;19.20;99.90;;;;;;5074159;28;20032;-52
2023/09/19 11:30:36;;;;;;;8.20;1.05;;;19.20;99.90;;;;;;5074423;28;20036;-52
2023/09/19 11:33:33;;;;;;;9.05;1.13;;;19.30;99.90;;;;;;5074409;28;20066;-47
2023/09/19 11:36:02;;;;;;;6.13;1.35;;;19.30;99.90;;;;;;5074204;28;20430;-52
2023/09/19 11:38:47;;;;;;;7.88;0.77;;;19.30;99.90;;;;;;5074179;28;20039;-48
2023/09/19 11:41:31;;;;;;;6.32;0.85;;;19.20;99.90;;;;;;5074070;28;20036;-50
2023/09/19 11:44:03;;;;;;;3.78;0.95;;;19.20;99.90;;;;;;5073862;28;20028;-52
2023/09/19 11:46:52;;;;;;;3.67;0.98;;;19.10;99.90;;;;;;5073804;28;20024;-53
2023/09/19 11:49:26;;;;;;;2.45;0.70;;;19.20;99.90;;;;;;5070253;28;20378;-52
2023/09/19 11:51:51;;;;;;;7.78;1.67;;;19.40;99.90;;;;;;5074028;28;20025;-50
2023/09/19 11:54:19;;;;;;;7.20;1.05;;;19.50;99.90;;;;;;5073910;28;20058;-49
2023/09/19 11:56:48;;;;;;;4.20;0.80;;;19.60;99.90;;;;;;5074104;28;20024;-53
2023/09/19 11:59:23;;;;;;;8.38;1.05;;;19.50;99.90;;;;;;5073421;28;20028;-50
2023/09/19 12:01:57;;;;;;;1.13;1.02;;;19.50;99.90;;;;;;5073461;28;20020;-52
2023/09/19 12:04:45;;;;;;;3.17;1.13;;;19.40;99.90;;;;;;5073676;28;20032;-51
2023/09/19 12:07:16;;;;;;;11.95;1.02;;;19.40;99.90;;;;;;5073447;28;20473;-53
2023/09/19 12:09:49;;;;;;;4.55;1.00;;;19.30;99.90;;;;;;5072028;28;20035;-52
2023/09/19 12:12:35;;;;;;;3.15;0.65;;;19.20;99.90;;;;;;5073561;28;20033;-55
2023/09/19 12:15:04;;;;;;;0.87;0.67;;;19.20;99.90;;;;;;5073152;28;20024;-52
2023/09/19 12:17:36;;;;;;;4.70;1.17;;;19.20;99.90;;;;;;5073469;28;20270;-52
2023/09/19 12:20:12;;;;;;;5.32;0.65;;;19.10;99.90;;;;;;5073153;28;20107;-53
2023/09/19 12:22:43;;;;;;;2.55;1.17;;;19.10;99.90;;;;;;5073248;28;20044;-50
2023/09/19 12:25:11;;;;;;;1.77;0.68;;;19.10;99.90;;;;;;5072662;28;20504;-51
2023/09/19 12:27:49;;;;;;;4.93;1.20;;;19.10;99.90;;;;;;5073096;28;20027;-52
2023/09/19 12:30:17;;;;;;;5.03;1.58;;;19.10;99.90;;;;;;5073093;28;20043;-54
2023/09/19 12:32:44;;;;;;;7.30;1.45;;;19.10;99.90;;;;;;5073245;28;20393;-52
2023/09/19 12:35:17;;;;;;;5.82;1.52;;;19.10;99.90;;;;;;5072983;28;20130;-52
2023/09/19 12:37:52;;;;;;;10.07;1.17;;;19.10;99.90;;;;;;5073320;28;20436;-51
2023/09/19 12:40:22;;;;;;;6.85;0.73;;;19.20;99.90;;;;;;5072798;28;20032;-52
2023/09/19 12:42:53;;;;;;;11.23;1.20;;;19.20;99.90;;;;;;5072781;28;20024;-48
2023/09/19 12:45:19;;;;;;;1.17;0.75;;;19.20;99.90;;;;;;5072915;28;20483;-57
2023/09/19 12:48:29;;;;;;;6.70;1.02;;;19.30;99.90;;;;;;5072834;28;20119;-50
2023/09/19 12:51:09;;;;;;;3.33;0.75;;;19.40;99.90;;;;;;5072821;28;20044;-49
2023/09/19 12:53:49;;;;;;;0.98;0.77;;;19.40;99.90;;;;;;5072804;28;20032;-51
2023/09/19 12:56:18;;;;;;;6.57;0.98;;;19.50;99.90;;;;;;5072920;28;20033;-52
2023/09/19 12:58:56;;;;;;;5.80;1.02;;;19.40;99.90;;;;;;5072687;28;20031;-52
2023/09/19 13:01:29;;;;;;;4.10;0.80;;;19.40;99.90;;;;;;5072928;28;20534;-50
2023/09/19 13:04:12;;;;;;;4.22;1.63;;;19.30;99.90;;;;;;5072624;28;20020;-52
2023/09/19 13:06:43;;;;;;;2.75;1.02;;;19.20;99.90;;;;;;5072998;28;20028;-50